Time;durP1;ratioP1;P1;durP2;ratioP2;P2;SDS_P1;SDS_P2;PMS_P1;PMS_P2;Temp;Humidity;BMP_temperature;BMP_pressure;BME280_temperature;BME280_humidity;BME280_pressure;Samples;Min_cycle;Max_cycle;Signal;HPM_P1;HPM_P2
2022/06/13 00:00:45;;;;;;;13.23;5.30;;;;;;;;;;5061664;28;20033;-62
2022/06/13 00:03:11;;;;;;;16.80;7.23;;;;;;;;;;5063273;28;20414;-62
2022/06/13 00:05:37;;;;;;;16.33;5.80;;;;;;;;;;5061181;28;20499;-62
2022/06/13 00:08:03;;;;;;;13.33;5.07;;;;;;;;;;5056366;28;20041;-62
2022/06/13 00:10:29;;;;;;;14.40;5.97;;;;;;;;;;5054589;28;20726;-62
2022/06/13 00:12:55;;;;;;;16.40;6.27;;;;;;;;;;5060809;28;20068;-62
2022/06/13 00:15:21;;;;;;;11.97;5.50;;;;;;;;;;5058380;28;20104;-62
2022/06/13 00:17:47;;;;;;;13.57;6.00;;;;;;;;;;5059930;28;20041;-62
2022/06/13 00:20:13;;;;;;;14.93;6.03;;;;;;;;;;5059451;28;20655;-62
2022/06/13 00:22:39;;;;;;;15.47;6.17;;;;;;;;;;5059970;28;20084;-62
2022/06/13 00:25:06;;;;;;;16.90;6.47;;;;;;;;;;5057930;28;20037;-62
2022/06/13 00:27:32;;;;;;;15.70;5.90;;;;;;;;;;5059554;28;20131;-62
2022/06/13 00:29:58;;;;;;;11.53;5.80;;;;;;;;;;5060006;28;20044;-62
2022/06/13 00:32:25;;;;;;;14.23;5.73;;;;;;;;;;5057184;28;20090;-62
2022/06/13 00:34:51;;;;;;;14.60;6.00;;;;;;;;;;5057532;28;20036;-62
2022/06/13 00:37:17;;;;;;;14.80;6.53;;;;;;;;;;5058173;28;20049;-62
2022/06/13 00:39:43;;;;;;;14.70;5.53;;;;;;;;;;5059659;28;20505;-62
2022/06/13 00:42:09;;;;;;;14.93;6.40;;;;;;;;;;5056837;28;20127;-62
2022/06/13 00:44:37;;;;;;;18.00;6.47;;;;;;;;;;5059706;28;20056;-62
2022/06/13 00:47:03;;;;;;;11.57;5.30;;;;;;;;;;5060288;28;20481;-62
2022/06/13 00:49:39;;;;;;;18.63;6.97;;;;;;;;;;5056862;28;20072;-62
2022/06/13 00:52:11;;;;;;;17.07;6.50;;;;;;;;;;5060332;28;20426;-62
2022/06/13 00:54:38;;;;;;;16.70;7.00;;;;;;;;;;5060862;28;20044;-62
2022/06/13 00:57:05;;;;;;;17.13;6.73;;;;;;;;;;5063230;28;20045;-62
2022/06/13 00:59:33;;;;;;;16.13;7.07;;;;;;;;;;5057344;28;20040;-62
2022/06/13 01:01:59;;;;;;;16.10;6.30;;;;;;;;;;5058327;28;20539;-62
2022/06/13 01:04:25;;;;;;;15.20;6.67;;;;;;;;;;5059619;28;20129;-62
2022/06/13 01:06:52;;;;;;;21.33;7.30;;;;;;;;;;5059582;28;20040;-62
2022/06/13 01:11:16;;;;;;;17.60;6.93;;;;;;;;;;5058960;28;20048;-63
2022/06/13 01:12:07;;;;;;;19.33;7.73;;;;;;;;;;5058785;28;20503;-62
2022/06/13 01:14:45;;;;;;;21.13;7.53;;;;;;;;;;5058580;28;20119;-62
2022/06/13 01:17:14;;;;;;;19.10;7.53;;;;;;;;;;5056790;28;20404;-62
2022/06/13 01:19:59;;;;;;;20.03;7.80;;;;;;;;;;5058243;28;20155;-62
2022/06/13 01:22:43;;;;;;;16.00;7.70;;;;;;;;;;5059400;28;20033;-62
2022/06/13 01:25:37;;;;;;;20.97;7.63;;;;;;;;;;5057720;28;20044;-62
2022/06/13 01:28:23;;;;;;;22.13;7.88;;;;;;;;;;5057515;28;20055;-63
2022/06/13 01:31:08;;;;;;;19.67;9.07;;;;;;;;;;5057016;28;20145;-62
2022/06/13 01:33:40;;;;;;;21.43;8.47;;;;;;;;;;5058250;28;20052;-63
2022/06/13 01:36:20;;;;;;;18.00;7.90;;;;;;;;;;5056831;28;20044;-62
2022/06/13 01:38:49;;;;;;;21.33;9.17;;;;;;;;;;5056623;28;20041;-62
2022/06/13 01:41:34;;;;;;;22.23;11.30;;;;;;;;;;5059646;28;20041;-62
2022/06/13 01:44:23;;;;;;;16.80;8.53;;;;;;;;;;5058740;28;20053;-62
2022/06/13 01:47:04;;;;;;;17.53;8.73;;;;;;;;;;5058485;28;20072;-63
2022/06/13 01:49:53;;;;;;;17.60;8.53;;;;;;;;;;5056979;28;20064;-62
2022/06/13 01:52:34;;;;;;;21.77;8.57;;;;;;;;;;5058590;28;20045;-62
2022/06/13 01:55:13;;;;;;;20.50;8.80;;;;;;;;;;5057645;28;20045;-62
2022/06/13 01:57:59;;;;;;;19.10;8.23;;;;;;;;;;5058502;28;20041;-62
2022/06/13 02:00:32;;;;;;;15.27;7.57;;;;;;;;;;5060586;28;20460;-62
2022/06/13 02:03:17;;;;;;;15.88;7.55;;;;;;;;;;5058278;28;20068;-62
2022/06/13 02:05:46;;;;;;;18.47;8.40;;;;;;;;;;5058431;28;20091;-62
2022/06/13 02:08:18;;;;;;;16.27;7.47;;;;;;;;;;5056027;28;20041;-62
2022/06/13 02:10:56;;;;;;;20.10;7.60;;;;;;;;;;5056537;28;20041;-62
2022/06/13 02:13:29;;;;;;;16.73;8.00;;;;;;;;;;5056790;28;20052;-62
2022/06/13 02:15:56;;;;;;;14.82;6.95;;;;;;;;;;5057150;28;20124;-62
2022/06/13 02:18:29;;;;;;;17.93;7.33;;;;;;;;;;5059193;28;20136;-62
2022/06/13 02:20:58;;;;;;;16.27;7.90;;;;;;;;;;5041253;28;20047;-62
2022/06/13 02:23:26;;;;;;;16.23;6.87;;;;;;;;;;5056027;28;20094;-62
2022/06/13 02:25:56;;;;;;;19.50;6.60;;;;;;;;;;5057387;28;20048;-62
2022/06/13 02:28:48;;;;;;;14.03;6.67;;;;;;;;;;5055919;28;20876;-63
2022/06/13 02:31:17;;;;;;;16.13;7.23;;;;;;;;;;5039392;28;20052;-62
2022/06/13 02:33:51;;;;;;;17.70;7.03;;;;;;;;;;5058450;28;20508;-62
2022/06/13 02:36:17;;;;;;;18.57;8.43;;;;;;;;;;5058562;28;20036;-62
2022/06/13 02:38:49;;;;;;;17.07;7.27;;;;;;;;;;5058099;28;20048;-62
2022/06/13 02:41:18;;;;;;;20.13;8.17;;;;;;;;;;5057367;28;20044;-62
2022/06/13 02:43:47;;;;;;;18.53;8.00;;;;;;;;;;5054250;28;20049;-62
2022/06/13 02:46:22;;;;;;;17.33;7.37;;;;;;;;;;5057772;28;20083;-62
2022/06/13 02:48:56;;;;;;;23.40;8.83;;;;;;;;;;5057986;28;20044;-62
2022/06/13 02:51:34;;;;;;;20.30;8.03;;;;;;;;;;5057713;28;20901;-62
2022/06/13 02:54:07;;;;;;;20.30;8.47;;;;;;;;;;5058140;28;20103;-62
2022/06/13 02:57:23;;;;;;;23.60;8.75;;;;;;;;;;5055617;28;20059;-62
2022/06/13 02:59:27;;;;;;;15.90;8.53;;;;;;;;;;5056778;28;20074;-62
2022/06/13 03:01:55;;;;;;;19.50;9.50;;;;;;;;;;5057290;28;20450;-63
2022/06/13 03:04:24;;;;;;;18.77;8.67;;;;;;;;;;5060393;28;20110;-63
2022/06/13 03:07:23;;;;;;;20.43;9.37;;;;;;;;;;5060478;28;20050;-62
2022/06/13 03:09:54;;;;;;;21.40;9.43;;;;;;;;;;5051403;28;20056;-62
2022/06/13 03:12:29;;;;;;;25.17;10.77;;;;;;;;;;5060043;28;20491;-63
2022/06/13 03:14:56;;;;;;;22.60;9.77;;;;;;;;;;5060840;28;20399;-63
2022/06/13 03:17:28;;;;;;;24.47;10.70;;;;;;;;;;5060012;28;20139;-63
2022/06/13 03:20:06;;;;;;;26.50;10.57;;;;;;;;;;5060752;28;20048;-62
2022/06/13 03:22:41;;;;;;;24.80;11.50;;;;;;;;;;5062113;28;20117;-62
2022/06/13 03:25:10;;;;;;;24.23;11.10;;;;;;;;;;5061746;28;20040;-62
2022/06/13 03:27:56;;;;;;;30.07;11.73;;;;;;;;;;5060807;28;20052;-62
2022/06/13 03:30:24;;;;;;;24.43;12.33;;;;;;;;;;5056709;28;20588;-62
2022/06/13 03:35:38;;;;;;;32.10;12.50;;;;;;;;;;5060473;28;20045;-62
2022/06/13 03:38:06;;;;;;;22.70;11.43;;;;;;;;;;5060840;28;20033;-62
2022/06/13 03:40:35;;;;;;;28.93;12.67;;;;;;;;;;5060090;28;20479;-62
2022/06/13 03:43:10;;;;;;;31.73;11.77;;;;;;;;;;5058592;28;20049;-63
2022/06/13 03:45:40;;;;;;;31.67;11.63;;;;;;;;;;5057474;28;20102;-62
2022/06/13 03:48:19;;;;;;;28.80;12.70;;;;;;;;;;5060757;28;20098;-63
2022/06/13 03:50:50;;;;;;;29.57;12.20;;;;;;;;;;5053314;28;20041;-62
2022/06/13 03:53:19;;;;;;;23.57;12.23;;;;;;;;;;5051077;28;20056;-62
2022/06/13 03:55:48;;;;;;;28.20;12.50;;;;;;;;;;5051058;28;20133;-62
2022/06/13 03:58:16;;;;;;;29.43;12.80;;;;;;;;;;5051366;28;20068;-62
2022/06/13 04:00:47;;;;;;;29.43;12.87;;;;;;;;;;5051370;28;20036;-62
2022/06/13 04:03:13;;;;;;;28.03;13.40;;;;;;;;;;5051023;28;20037;-62
2022/06/13 04:05:42;;;;;;;31.10;13.53;;;;;;;;;;5051083;28;20557;-62
2022/06/13 04:08:10;;;;;;;28.10;12.93;;;;;;;;;;5050663;28;20068;-63
2022/06/13 04:10:59;;;;;;;31.23;13.83;;;;;;;;;;5050783;28;20052;-63
2022/06/13 04:13:44;;;;;;;30.03;14.00;;;;;;;;;;5043814;28;20165;-63
2022/06/13 04:16:13;;;;;;;29.63;13.27;;;;;;;;;;5050713;28;20105;-63
2022/06/13 04:18:57;;;;;;;33.90;13.73;;;;;;;;;;5051022;28;20052;-63
2022/06/13 04:21:39;;;;;;;27.50;12.73;;;;;;;;;;5050554;28;20049;-63
2022/06/13 04:24:20;;;;;;;27.43;13.57;;;;;;;;;;5050277;28;20044;-63
2022/06/13 04:27:02;;;;;;;32.90;13.10;;;;;;;;;;5050631;28;20049;-63
2022/06/13 04:29:50;;;;;;;23.77;13.27;;;;;;;;;;5050570;28;20123;-62
2022/06/13 04:32:19;;;;;;;25.90;11.50;;;;;;;;;;5050384;28;20577;-62
2022/06/13 04:34:47;;;;;;;31.00;12.27;;;;;;;;;;5050344;28;20048;-62
2022/06/13 04:37:14;;;;;;;19.07;11.17;;;;;;;;;;5050465;28;20070;-62
2022/06/13 04:39:41;;;;;;;25.03;11.07;;;;;;;;;;5050279;28;20049;-62
2022/06/13 04:42:09;;;;;;;24.23;11.93;;;;;;;;;;5050185;28;20057;-62
2022/06/13 04:44:36;;;;;;;24.17;11.50;;;;;;;;;;5050031;28;20049;-62
2022/06/13 04:47:04;;;;;;;25.53;12.13;;;;;;;;;;5049627;28;20874;-62
2022/06/13 04:49:43;;;;;;;25.27;11.00;;;;;;;;;;5048481;28;20045;-62
2022/06/13 04:52:13;;;;;;;23.83;11.23;;;;;;;;;;5048224;28;20049;-62
2022/06/13 04:54:42;;;;;;;20.27;9.97;;;;;;;;;;5049431;28;20053;-62
2022/06/13 04:57:12;;;;;;;18.23;8.97;;;;;;;;;;5049854;28;20056;-62
2022/06/13 04:59:40;;;;;;;18.60;8.23;;;;;;;;;;5048286;28;20041;-62
2022/06/13 05:02:06;;;;;;;17.53;8.30;;;;;;;;;;5049910;28;20041;-62
2022/06/13 05:04:33;;;;;;;19.37;6.80;;;;;;;;;;5049357;28;20049;-62
2022/06/13 05:07:05;;;;;;;13.53;4.87;;;;;;;;;;5063055;28;20131;-62
2022/06/13 05:09:35;;;;;;;14.27;6.13;;;;;;;;;;5061523;28;20045;-62
2022/06/13 05:12:10;;;;;;;10.83;5.23;;;;;;;;;;5052176;28;20295;-62
2022/06/13 05:14:42;;;;;;;10.07;3.80;;;;;;;;;;5051773;28;20041;-62
2022/06/13 05:17:08;;;;;;;8.15;3.42;;;;;;;;;;5069302;28;20041;-62
2022/06/13 05:19:43;;;;;;;11.87;3.97;;;;;;;;;;5054395;28;20396;-62
2022/06/13 05:22:09;;;;;;;7.97;3.53;;;;;;;;;;5062135;28;20503;-63
2022/06/13 05:24:50;;;;;;;10.43;3.63;;;;;;;;;;5051139;28;20151;-62
2022/06/13 05:27:16;;;;;;;11.40;2.90;;;;;;;;;;5049349;28;20428;-62
2022/06/13 05:29:42;;;;;;;6.53;2.90;;;;;;;;;;5052381;28;20548;-62
2022/06/13 05:32:09;;;;;;;9.57;3.00;;;;;;;;;;5066938;28;20053;-62
2022/06/13 05:34:37;;;;;;;13.23;3.43;;;;;;;;;;5047924;28;20045;-62
2022/06/13 05:37:03;;;;;;;12.27;3.83;;;;;;;;;;5057316;28;20079;-62
2022/06/13 05:39:30;;;;;;;11.03;3.57;;;;;;;;;;5061089;28;20573;-62
2022/06/13 05:41:56;;;;;;;11.83;2.87;;;;;;;;;;5049046;28;20053;-63
2022/06/13 05:44:22;;;;;;;11.93;2.93;;;;;;;;;;5049028;28;20041;-63
2022/06/13 05:46:48;;;;;;;12.30;2.97;;;;;;;;;;5060858;28;20045;-63
2022/06/13 05:49:17;;;;;;;8.90;3.00;;;;;;;;;;5056420;28;20399;-63
2022/06/13 05:51:43;;;;;;;8.77;2.90;;;;;;;;;;5062133;28;20048;-63
2022/06/13 05:54:12;;;;;;;9.53;3.20;;;;;;;;;;5054476;28;20036;-63
2022/06/13 05:56:39;;;;;;;10.00;3.07;;;;;;;;;;5060781;28;20471;-63
2022/06/13 05:59:05;;;;;;;8.47;3.07;;;;;;;;;;5050066;28;20051;-63
2022/06/13 06:01:35;;;;;;;8.47;2.70;;;;;;;;;;5054172;28;20040;-63
2022/06/13 06:04:02;;;;;;;7.93;2.57;;;;;;;;;;5051858;28;20053;-63
2022/06/13 06:06:29;;;;;;;5.63;2.13;;;;;;;;;;5055381;28;20051;-63
2022/06/13 06:08:55;;;;;;;9.13;2.23;;;;;;;;;;5056784;28;20067;-63
2022/06/13 06:11:22;;;;;;;7.63;2.53;;;;;;;;;;5053646;28;20080;-63
2022/06/13 06:13:48;;;;;;;6.70;2.00;;;;;;;;;;5053342;28;20045;-63
2022/06/13 06:16:16;;;;;;;6.80;1.93;;;;;;;;;;5057476;28;20146;-63
2022/06/13 06:18:42;;;;;;;11.23;2.20;;;;;;;;;;5054472;28;20040;-63
2022/06/13 06:21:08;;;;;;;9.90;2.00;;;;;;;;;;5056290;28;20040;-63
2022/06/13 06:23:35;;;;;;;8.20;1.87;;;;;;;;;;5055199;28;20040;-63
2022/06/13 06:26:02;;;;;;;7.97;1.53;;;;;;;;;;5059811;28;20570;-63
2022/06/13 06:28:29;;;;;;;9.10;1.97;;;;;;;;;;5060734;28;20061;-63
2022/06/13 06:30:56;;;;;;;6.10;1.90;;;;;;;;;;5058074;28;20561;-63
2022/06/13 06:33:22;;;;;;;11.47;2.00;;;;;;;;;;5052841;28;20723;-63
2022/06/13 06:35:49;;;;;;;7.40;1.87;;;;;;;;;;5057301;28;20060;-63
2022/06/13 06:38:16;;;;;;;9.57;2.00;;;;;;;;;;5056313;28;20060;-63
2022/06/13 06:40:42;;;;;;;8.47;1.97;;;;;;;;;;5055530;28;20053;-63
2022/06/13 06:43:09;;;;;;;6.50;1.90;;;;;;;;;;5059367;28;20093;-63
2022/06/13 06:45:35;;;;;;;11.83;1.60;;;;;;;;;;5059463;28;20052;-63
2022/06/13 06:48:01;;;;;;;6.40;1.90;;;;;;;;;;5060041;28;20044;-63
2022/06/13 06:50:30;;;;;;;11.90;2.43;;;;;;;;;;5058982;28;20055;-63
2022/06/13 06:52:56;;;;;;;8.67;1.70;;;;;;;;;;5062542;28;20144;-63
2022/06/13 07:01:15;;;;;;;23.37;2.80;;;;;;;;;;5027828;28;20204;-63
2022/06/13 07:03:42;;;;;;;9.43;1.60;;;;;;;;;;5026759;28;20126;-62
2022/06/13 07:06:08;;;;;;;6.33;1.67;;;;;;;;;;5046097;28;20053;-62
2022/06/13 07:08:36;;;;;;;8.03;1.73;;;;;;;;;;5057417;28;20052;-63
2022/06/13 07:13:48;;;;;;;6.07;1.83;;;;;;;;;;5066903;28;20044;-64
2022/06/13 07:16:14;;;;;;;12.40;2.83;;;;;;;;;;5067510;28;20053;-64
2022/06/13 07:18:41;;;;;;;6.97;2.37;;;;;;;;;;5054325;28;20048;-64
2022/06/13 07:21:07;;;;;;;5.10;2.10;;;;;;;;;;5059187;28;20048;-64
2022/06/13 07:23:33;;;;;;;7.97;2.50;;;;;;;;;;5067380;28;20048;-65
2022/06/13 07:26:00;;;;;;;7.53;1.80;;;;;;;;;;5053328;28;20222;-65
2022/06/13 07:28:26;;;;;;;4.37;1.40;;;;;;;;;;5065738;28;20048;-65
2022/06/13 07:30:52;;;;;;;4.57;1.80;;;;;;;;;;5065792;28;20063;-65
2022/06/13 07:33:18;;;;;;;5.23;1.50;;;;;;;;;;5065743;28;20049;-65
2022/06/13 07:35:44;;;;;;;6.13;1.63;;;;;;;;;;5061859;28;20037;-65
2022/06/13 07:38:17;;;;;;;7.27;1.80;;;;;;;;;;5055641;28;20056;-66
2022/06/13 07:40:44;;;;;;;6.03;1.30;;;;;;;;;;5047178;28;20044;-66
2022/06/13 07:43:14;;;;;;;10.90;2.43;;;;;;;;;;5054916;28;20105;-65
2022/06/13 07:45:40;;;;;;;6.70;1.83;;;;;;;;;;5067098;28;20071;-66
2022/06/13 07:48:07;;;;;;;6.37;1.50;;;;;;;;;;5057482;28;20098;-66
2022/06/13 07:50:33;;;;;;;5.70;1.73;;;;;;;;;;5053305;28;20486;-65
2022/06/13 07:52:59;;;;;;;6.90;1.33;;;;;;;;;;5061524;28;20068;-66
2022/06/13 07:55:27;;;;;;;9.20;2.07;;;;;;;;;;5063061;28;20041;-65
2022/06/13 07:57:53;;;;;;;9.40;2.20;;;;;;;;;;5059292;28;20037;-66
2022/06/13 08:00:23;;;;;;;7.93;1.90;;;;;;;;;;5064209;28;20041;-65
2022/06/13 08:02:49;;;;;;;7.37;1.73;;;;;;;;;;5059783;28;20399;-66
2022/06/13 08:05:16;;;;;;;9.87;2.90;;;;;;;;;;5070756;28;20052;-65
2022/06/13 08:07:42;;;;;;;6.63;2.03;;;;;;;;;;5068893;28;20045;-65
2022/06/13 08:10:08;;;;;;;8.17;1.60;;;;;;;;;;5048108;28;20086;-65
2022/06/13 08:12:34;;;;;;;12.03;1.70;;;;;;;;;;5067446;28;20098;-65
2022/06/13 08:15:00;;;;;;;8.67;1.77;;;;;;;;;;5063656;28;20052;-65
2022/06/13 08:17:26;;;;;;;9.27;2.20;;;;;;;;;;5056681;28;20424;-65
2022/06/13 08:19:52;;;;;;;9.13;1.83;;;;;;;;;;5070816;28;20041;-65
2022/06/13 08:22:18;;;;;;;5.30;1.30;;;;;;;;;;5069056;28;20491;-65
2022/06/13 08:24:45;;;;;;;9.07;1.70;;;;;;;;;;5068143;28;20052;-65
2022/06/13 08:27:11;;;;;;;7.07;1.63;;;;;;;;;;5059369;28;20048;-64
2022/06/13 08:29:37;;;;;;;10.60;3.03;;;;;;;;;;5071000;28;20155;-64
2022/06/13 08:32:03;;;;;;;6.73;1.50;;;;;;;;;;5063750;28;20447;-64
2022/06/13 08:34:30;;;;;;;5.80;1.40;;;;;;;;;;5050780;28;20911;-64
2022/06/13 08:36:56;;;;;;;4.60;1.23;;;;;;;;;;5052981;28;20052;-64
2022/06/13 08:39:23;;;;;;;7.67;1.77;;;;;;;;;;5057569;28;20057;-64
2022/06/13 08:41:51;;;;;;;7.60;1.70;;;;;;;;;;5050144;28;20056;-64
2022/06/13 08:44:23;;;;;;;5.87;1.27;;;;;;;;;;5059999;28;20135;-64
2022/06/13 08:47:09;;;;;;;6.97;1.30;;;;;;;;;;5061870;28;20048;-64
2022/06/13 08:49:42;;;;;;;7.33;1.77;;;;;;;;;;5068529;28;20056;-64
2022/06/13 08:52:08;;;;;;;5.43;1.00;;;;;;;;;;5068213;28;20040;-65
2022/06/13 08:54:35;;;;;;;4.57;1.07;;;;;;;;;;5053953;28;20079;-64
2022/06/13 08:57:03;;;;;;;8.33;1.10;;;;;;;;;;5058804;28;20049;-63
2022/06/13 08:59:34;;;;;;;5.60;1.73;;;;;;;;;;5061360;28;20140;-63
2022/06/13 09:02:21;;;;;;;7.43;1.30;;;;;;;;;;5064174;28;20049;-63
2022/06/13 09:04:59;;;;;;;5.27;0.87;;;;;;;;;;5053614;28;20558;-63
2022/06/13 09:07:29;;;;;;;6.00;1.23;;;;;;;;;;5063862;28;20056;-63
2022/06/13 09:10:01;;;;;;;5.23;1.17;;;;;;;;;;5058102;28;20048;-63
2022/06/13 09:12:34;;;;;;;5.07;0.97;;;;;;;;;;5052629;28;20049;-63
2022/06/13 09:15:22;;;;;;;8.70;1.77;;;;;;;;;;5049233;28;20566;-63
2022/06/13 09:17:51;;;;;;;7.10;1.07;;;;;;;;;;5054224;28;20051;-63
2022/06/13 09:20:21;;;;;;;6.30;0.90;;;;;;;;;;5067762;28;20494;-63
2022/06/13 09:22:53;;;;;;;6.07;1.23;;;;;;;;;;5055625;28;20040;-63
2022/06/13 09:25:35;;;;;;;5.03;1.40;;;;;;;;;;5055942;28;20122;-63
2022/06/13 09:28:19;;;;;;;8.90;1.60;;;;;;;;;;5072073;28;20044;-63
2022/06/13 09:30:48;;;;;;;7.27;1.57;;;;;;;;;;5089416;28;20048;-62
2022/06/13 09:33:19;;;;;;;4.83;1.20;;;;;;;;;;5073603;28;20048;-63
2022/06/13 09:35:45;;;;;;;3.73;0.83;;;;;;;;;;5068527;28;20041;-63
2022/06/13 09:38:22;;;;;;;6.53;1.30;;;;;;;;;;5069203;28;20040;-63
2022/06/13 09:41:04;;;;;;;5.37;1.17;;;;;;;;;;5056120;28;20592;-63
2022/06/13 09:43:40;;;;;;;5.40;1.47;;;;;;;;;;5067121;28;20082;-62
2022/06/13 09:46:06;;;;;;;6.57;1.37;;;;;;;;;;5068894;28;20052;-63
2022/06/13 09:48:48;;;;;;;3.00;0.90;;;;;;;;;;5068210;28;20048;-63
2022/06/13 09:51:29;;;;;;;5.63;1.27;;;;;;;;;;5068668;28;20783;-62
2022/06/13 09:54:08;;;;;;;6.53;1.40;;;;;;;;;;5064571;28;20041;-63
2022/06/13 09:56:39;;;;;;;5.57;1.13;;;;;;;;;;5068559;28;20087;-63
2022/06/13 09:59:08;;;;;;;4.07;1.20;;;;;;;;;;5068635;28;20047;-63
2022/06/13 10:01:38;;;;;;;4.10;1.17;;;;;;;;;;5068731;28;20123;-63
2022/06/13 10:04:04;;;;;;;5.47;1.17;;;;;;;;;;5068340;28;20074;-62
2022/06/13 10:06:37;;;;;;;5.50;1.10;;;;;;;;;;5068326;28;20044;-63
2022/06/13 10:09:03;;;;;;;;;;;;;;;;;;5068567;28;20044;-63
2022/06/13 10:11:31;;;;;;;7.27;1.50;;;;;;;;;;5068441;28;19920;-63
2022/06/13 10:14:05;;;;;;;8.50;1.60;;;;;;;;;;5068472;28;20396;-63
2022/06/13 10:16:31;;;;;;;6.40;1.93;;;;;;;;;;5068375;28;20071;-63
2022/06/13 10:19:09;;;;;;;7.17;1.60;;;;;;;;;;5050950;28;20424;-63
2022/06/13 10:21:41;;;;;;;3.97;1.10;;;;;;;;;;5048428;28;20503;-63
2022/06/13 10:24:10;;;;;;;5.78;2.25;;;;;;;;;;5048475;28;20530;-62
2022/06/13 10:26:36;;;;;;;5.63;1.30;;;;;;;;;;5048068;28;20061;-63
2022/06/13 10:29:18;;;;;;;4.73;1.43;;;;;;;;;;5047850;28;20053;-62
2022/06/13 10:31:54;;;;;;;4.03;1.03;;;;;;;;;;5047970;28;20080;-63
2022/06/13 10:34:20;;;;;;;5.10;1.40;;;;;;;;;;5047870;28;20819;-63
2022/06/13 10:37:05;;;;;;;5.60;1.10;;;;;;;;;;5046603;28;20495;-62
2022/06/13 10:39:32;;;;;;;5.40;1.27;;;;;;;;;;5047970;28;20088;-63
2022/06/13 10:42:00;;;;;;;6.40;1.30;;;;;;;;;;5056008;28;20132;-63
2022/06/13 10:44:26;;;;;;;7.73;1.13;;;;;;;;;;5048496;28;20049;-63
2022/06/13 10:46:56;;;;;;;5.50;1.17;;;;;;;;;;5046682;28;20045;-63
2022/06/13 10:49:28;;;;;;;5.07;1.50;;;;;;;;;;5047772;28;20807;-63
2022/06/13 10:51:57;;;;;;;4.30;1.30;;;;;;;;;;5048353;28;20040;-63
2022/06/13 10:54:31;;;;;;;6.37;1.53;;;;;;;;;;5048048;28;20045;-63
2022/06/13 10:57:05;;;;;;;6.73;1.70;;;;;;;;;;5066534;28;20051;-62
2022/06/13 10:59:33;;;;;;;5.00;1.33;;;;;;;;;;5068140;28;20037;-63
2022/06/13 11:02:01;;;;;;;7.57;2.03;;;;;;;;;;5068150;28;20044;-63
2022/06/13 11:04:31;;;;;;;6.50;1.50;;;;;;;;;;5068121;28;20044;-63
2022/06/13 11:06:59;;;;;;;7.03;1.50;;;;;;;;;;5051541;28;20048;-63
2022/06/13 11:09:36;;;;;;;5.43;1.53;;;;;;;;;;5047753;28;20091;-63
2022/06/13 11:12:04;;;;;;;7.53;1.30;;;;;;;;;;5047345;28;20049;-63
2022/06/13 11:23:00;;;;;;;6.60;1.50;;;;;;;;;;5049222;28;20044;-63
2022/06/13 11:25:36;;;;;;;6.20;2.53;;;;;;;;;;5052155;28;20051;-63
2022/06/13 11:28:02;;;;;;;5.93;1.38;;;;;;;;;;5051298;28;20082;-63
2022/06/13 11:30:28;;;;;;;6.30;1.83;;;;;;;;;;5051794;28;20084;-63
2022/06/13 11:33:10;;;;;;;6.43;1.70;;;;;;;;;;5055410;28;20117;-63
2022/06/13 11:35:41;;;;;;;4.10;1.13;;;;;;;;;;5071315;28;20098;-63
2022/06/13 11:38:19;;;;;;;5.88;1.40;;;;;;;;;;5071128;28;20379;-63
2022/06/13 11:40:46;;;;;;;6.60;1.70;;;;;;;;;;5071146;28;20051;-63
2022/06/13 11:43:19;;;;;;;7.03;1.55;;;;;;;;;;5071478;28;20462;-63
2022/06/13 11:45:45;;;;;;;;;;;;;;;;;;5062835;28;20045;-63
2022/06/13 11:48:14;;;;;;;4.75;1.33;;;;;;;;;;5059728;28;19921;-63
2022/06/13 11:50:40;;;;;;;8.02;1.92;;;;;;;;;;5070776;28;20712;-63
2022/06/13 11:55:58;;;;;;;6.67;1.83;;;;;;;;;;5058999;28;20396;-63
2022/06/13 11:58:29;;;;;;;7.00;1.37;;;;;;;;;;5057953;28;20036;-63
2022/06/13 12:01:02;;;;;;;8.60;1.57;;;;;;;;;;5059604;28;20546;-62
2022/06/13 12:03:28;;;;;;;4.37;1.37;;;;;;;;;;5060392;28;20106;-63
2022/06/13 12:06:00;;;;;;;7.63;1.45;;;;;;;;;;5062207;28;20506;-63
2022/06/13 12:08:28;;;;;;;6.75;1.58;;;;;;;;;;5062956;28;20040;-63
2022/06/13 12:11:00;;;;;;;8.50;1.65;;;;;;;;;;5071135;28;20592;-63
2022/06/13 12:13:27;;;;;;;6.45;1.48;;;;;;;;;;5050890;28;20098;-62
2022/06/13 12:16:00;;;;;;;5.90;1.50;;;;;;;;;;5065546;28;20510;-63
2022/06/13 12:18:26;;;;;;;5.03;1.60;;;;;;;;;;5064734;28;20116;-63
2022/06/13 12:20:55;;;;;;;8.98;1.58;;;;;;;;;;5061795;28;20203;-63
2022/06/13 12:23:44;;;;;;;6.55;1.77;;;;;;;;;;5050595;28;20041;-62
2022/06/13 12:26:21;;;;;;;8.03;2.37;;;;;;;;;;5051175;28;20079;-63
2022/06/13 12:28:51;;;;;;;8.33;2.27;;;;;;;;;;5050728;28;20076;-62
2022/06/13 12:31:26;;;;;;;7.30;2.43;;;;;;;;;;5050670;28;20053;-63
2022/06/13 12:34:09;;;;;;;5.63;1.10;;;;;;;;;;5050518;28;20067;-63
2022/06/13 12:36:35;;;;;;;6.00;1.43;;;;;;;;;;5050434;28;20033;-63
2022/06/13 12:39:20;;;;;;;3.10;1.23;;;;;;;;;;5050540;28;20048;-63
2022/06/13 12:41:49;;;;;;;7.07;1.38;;;;;;;;;;5054720;28;20057;-63
2022/06/13 12:44:18;;;;;;;4.65;1.23;;;;;;;;;;5054242;28;20399;-63
2022/06/13 12:46:56;;;;;;;6.30;1.60;;;;;;;;;;5062488;28;20186;-63
2022/06/13 12:49:47;;;;;;;6.95;2.20;;;;;;;;;;5061524;28;20068;-63
2022/06/13 12:52:27;;;;;;;5.82;1.52;;;;;;;;;;5062064;28;20044;-63
2022/06/13 12:54:59;;;;;;;7.38;1.52;;;;;;;;;;5062583;28;20982;-63
2022/06/13 12:57:28;;;;;;;5.47;1.63;;;;;;;;;;5057458;28;20526;-64
2022/06/13 13:00:03;;;;;;;4.55;1.30;;;;;;;;;;5058826;28;20057;-64
2022/06/13 13:02:32;;;;;;;5.75;1.65;;;;;;;;;;5048950;28;20049;-64
2022/06/13 13:05:01;;;;;;;5.32;1.25;;;;;;;;;;5055069;28;20095;-64
2022/06/13 13:07:50;;;;;;;6.72;1.60;;;;;;;;;;5064969;28;20071;-64
2022/06/13 13:10:25;;;;;;;6.85;1.50;;;;;;;;;;5049793;28;20087;-63
2022/06/13 13:12:51;;;;;;;4.45;1.52;;;;;;;;;;5050304;28;20474;-63
2022/06/13 13:15:40;;;;;;;5.00;1.40;;;;;;;;;;5058101;28;20123;-63
2022/06/13 13:18:15;;;;;;;7.60;1.77;;;;;;;;;;5048099;28;20088;-63
2022/06/13 13:20:50;;;;;;;5.35;1.73;;;;;;;;;;5053152;28;20040;-63
2022/06/13 13:23:28;;;;;;;5.55;1.33;;;;;;;;;;5059538;28;20033;-63
2022/06/13 13:26:02;;;;;;;2.60;0.98;;;;;;;;;;5055946;28;20041;-63
2022/06/13 13:28:34;;;;;;;5.85;1.55;;;;;;;;;;5054305;28;20056;-63
2022/06/13 13:31:15;;;;;;;5.13;1.65;;;;;;;;;;5069253;28;20585;-63
2022/06/13 13:33:53;;;;;;;4.72;1.45;;;;;;;;;;5049076;28;20140;-63
2022/06/13 13:36:25;;;;;;;5.95;1.60;;;;;;;;;;5065585;28;20414;-63
2022/06/13 13:38:57;;;;;;;4.50;1.20;;;;;;;;;;5056191;28;20049;-63
2022/06/13 13:41:23;;;;;;;;;;;;;;;;;;5049254;28;20389;-63
2022/06/13 13:43:56;;;;;;;6.53;1.42;;;;;;;;;;5068695;28;19946;-63
2022/06/13 13:46:30;;;;;;;6.65;1.70;;;;;;;;;;5051782;28;20079;-63
2022/06/13 13:49:16;;;;;;;6.85;1.55;;;;;;;;;;5056914;28;20090;-63
2022/06/13 13:51:45;;;;;;;7.00;1.42;;;;;;;;;;5061359;28;20110;-63
2022/06/13 13:54:25;;;;;;;6.00;1.42;;;;;;;;;;5052421;28;20047;-63
2022/06/13 13:56:51;;;;;;;7.13;1.70;;;;;;;;;;5055456;28;20050;-63
2022/06/13 13:59:19;;;;;;;4.10;1.38;;;;;;;;;;5063221;28;20040;-63
2022/06/13 14:01:57;;;;;;;4.45;1.50;;;;;;;;;;5053083;28;20118;-63
2022/06/13 14:04:27;;;;;;;6.82;1.55;;;;;;;;;;5051194;28;20048;-64
2022/06/13 14:07:12;;;;;;;11.88;2.33;;;;;;;;;;5069131;28;20051;-64
2022/06/13 14:09:38;;;;;;;5.82;1.20;;;;;;;;;;5057654;28;20037;-63
2022/06/13 14:12:09;;;;;;;6.55;1.60;;;;;;;;;;5054423;28;20265;-61
2022/06/13 14:14:50;;;;;;;7.72;1.88;;;;;;;;;;5055377;28;20064;-62
2022/06/13 14:17:27;;;;;;;4.80;1.70;;;;;;;;;;5058317;28;20782;-61
2022/06/13 14:19:58;;;;;;;6.00;1.73;;;;;;;;;;5058922;28;20036;-61
2022/06/13 14:22:24;;;;;;;6.57;2.05;;;;;;;;;;5053535;28;20124;-64
2022/06/13 14:25:01;;;;;;;6.45;1.60;;;;;;;;;;5049759;28;20057;-63
2022/06/13 14:27:27;;;;;;;4.32;1.35;;;;;;;;;;5053352;28;20057;-61
2022/06/13 14:31:03;;;;;;;4.88;1.67;;;;;;;;;;5057847;28;20115;-61
2022/06/13 14:32:40;;;;;;;5.07;1.45;;;;;;;;;;5055644;28;20094;-61
2022/06/13 14:35:15;;;;;;;5.97;1.70;;;;;;;;;;5054710;28;20052;-61
2022/06/13 14:37:46;;;;;;;7.57;1.65;;;;;;;;;;5056729;28;20055;-61
2022/06/13 14:40:30;;;;;;;8.02;2.00;;;;;;;;;;5053148;28;20056;-61
2022/06/13 14:43:01;;;;;;;7.63;2.00;;;;;;;;;;5051205;28;20402;-61
2022/06/13 14:45:46;;;;;;;4.30;1.10;;;;;;;;;;5053013;28;20116;-62
2022/06/13 14:48:31;;;;;;;6.32;1.83;;;;;;;;;;5066803;28;20056;-62
2022/06/13 14:50:59;;;;;;;5.07;1.45;;;;;;;;;;5067729;28;20124;-62
2022/06/13 14:53:28;;;;;;;12.55;1.90;;;;;;;;;;5066053;28;20055;-62
2022/06/13 14:56:09;;;;;;;4.57;1.33;;;;;;;;;;5067271;28;20474;-62
2022/06/13 14:58:44;;;;;;;6.60;1.60;;;;;;;;;;5065034;28;20131;-62
2022/06/13 15:01:29;;;;;;;6.35;1.70;;;;;;;;;;5059308;28;20448;-61
2022/06/13 15:04:04;;;;;;;4.22;1.33;;;;;;;;;;5066739;28;20405;-61
2022/06/13 15:06:33;;;;;;;7.35;1.40;;;;;;;;;;5068078;28;20113;-61
2022/06/13 15:09:22;;;;;;;5.97;1.45;;;;;;;;;;5071322;28;20685;-61
2022/06/13 15:11:50;;;;;;;9.18;1.98;;;;;;;;;;5051954;28;20052;-61
2022/06/13 15:14:18;;;;;;;7.47;1.58;;;;;;;;;;5071844;28;20047;-61
2022/06/13 15:16:49;;;;;;;6.53;1.50;;;;;;;;;;5070186;28;20080;-61
2022/06/13 15:19:15;;;;;;;5.38;1.33;;;;;;;;;;5071253;28;20041;-61
2022/06/13 15:21:51;;;;;;;5.47;1.40;;;;;;;;;;5070304;28;20049;-61
2022/06/13 15:24:18;;;;;;;4.90;1.27;;;;;;;;;;5056691;28;20491;-61
2022/06/13 15:26:45;;;;;;;7.53;1.80;;;;;;;;;;5051736;28;20079;-61